Create Custom Reports and Graphics: Custom Report

Latest Observations

Map

15 Minute Data

Latest Observation

39 Stations

15 Minute Data | America/Los_Angeles
as of 1/17/22 11:32 PM PST
Station Date Time Temp (°F) RH (%) Dew Pt (°F) Wind Dir (°) Wind Spd (mph) Wind Gust (mph) WindChill (°F) Solar Rad (W/m2) Latest Rain (In) Daily Rain (In) Daily Max Temp (°F) Daily Min Temp (°F) Daily Max Wind (mph) Daily ETo (in) Daily Leaf Wet Hrs (hrs)
Colony 1 1/17/22 2330 40.6   0.8 99   2 40.5   0.3 ENE | 61 2.0   1.4 3.1   1.2 - 0   0 0.00 0.00 59.2   0.5 33.5   6.7 6.1   0.7 0.038   0.002 -
Colony 2 1/17/22 2330 39.3   1.4 97   1 38.5   1.0 ENE | 58 1.8   0.5 2.4   0.3 - 0   0 0.00 0.00 60.3   1.6 33.3   6.6 7.3   0.0 0.033   0.007 -
5 Wells 1/17/22 2330 40.2   0.1 100   0 40.2   0.0 ENE | 63 0.9   0.4 1.7   0.9 - 3   1 0.00 0.00 57.0   1.2 33.9   6.0 7.3   0.6 0.033   0.005 -
Simmerhorn 1/17/22 2330 42.4   0.5 100   0 42.4   0.5 - - - - - - - 56.2   1.4 34.0   6.2 - - -
Galt-East 1/17/22 2330 41.8   1.1 100   0 41.8   1.1 E | 83 1.6   0.6 2.6   0.8 - 0   0 0.00 0.01 56.8   0.8 34.2   5.2 6.3   1.4 0.025   0.007 -
Borden Hills 1/17/22 2330 42.4   0.5 95   0 41.0   0.6 ENE | 71 4.3   0.9 4.9   0.3 39.8 0   0 0.00 0.00 56.0   4.1 35.7   5.8 6.9   0.2 0.030   0.010 -
Sierra Loma-L27 1/17/22 2330 43.9   1.5 94   2 42.3   1.1 NNE | 30 3.1   2.6 4.7   3.0 - - 0.00 0.00 56.3   2.1 36.3   5.4 7.1   0.4 - -
Lockeford 1/17/22 2330 43.1   2.0 95   0 41.7   2.1 E | 100 0.5   0.5 2.1   2.1 - 1   0 0.00 0.00 58.8   1.6 34.2   5.1 7.8   0.7 0.046   0.007 14.8   1.8
Lone Oak-L28 1/17/22 2330 42.8   4.9 97   0 42.1   4.9 ESE | 122 3.0   2.8 3.9   2.8 - - 0.00 0.00 64.1   5.4 33.4   4.1 7.1   0.8 - -
Kost Rd 1/17/22 2330 42.6   0.7 100   0 42.6   0.7 ENE | 66 1.1   0.9 2.1   1.1 - 0   0 0.00 0.00 58.6   1.5 35.6   5.6 5.1   3.9 0.034   0.009 -
Thornton 1/17/22 2330 40.6   1.4 90   1 37.8   1.6 N | 0 0.0   0.0 0.0   0.0 - 0   0 0.00 0.01 58.2   1.3 34.8   4.0 5.1   3.4 0.035   0.010 23.4   0.7
Lodi (LangeTwins) 1/17/22 2330 43.6   2.9 100   0 43.5   2.9 N | 0 0.0   0.0 0.0   0.0 - 0   0 0.00 0.00 62.7   2.6 35.2   5.3 4.4   3.0 0.030   0.012 13.2   2.4
Gilbeau Ranch 1/17/22 2330 41.6   0.1 100   0 41.6   0.1 ENE | 57 1.2   0.3 2.2   0.0 - 0   0 0.00 0.00 58.5   0.0 35.0   5.5 6.5   0.2 0.028   0.007 -
Galt West 1/17/22 2330 41.0   2.4 96   1 40.1   2.7 NNE | 31 1.3   1.1 1.8   0.7 - 0   0 0.00 0.00 57.1   2.1 35.3   2.8 5.6   3.4 0.034   0.010 -
Valley Oak 1/17/22 2330 39.9   0.3 100   0 39.9   0.3 NE | 46 0.5   0.5 1.4   1.4 - 0   0 0.00 0.00 59.0   1.3 35.2   4.1 6.1   2.9 0.041   0.009 -
Guard Rd (Lodi WSW) 1/17/22 2330 44.2   3.1 95   1 43.0   2.9 N | 0 0.0   0.4 0.0   1.2 - 0   0 0.00 0.00 61.0   1.8 35.1   5.4 8.7   0.6 0.040   0.008 3.7   5.2
Linden 1/17/22 2330 44.4   2.9 99   0 44.0   2.8 ESE | 122 0.9   0.3 3.1   1.8 - - 0.00 0.00 62.6   1.3 35.6   5.2 7.0   1.0 - 16.7   1.9
DeVries Road-North 1/17/22 2330 43.3   2.8 99   2 43.1   3.3 N | 9 0.3   0.0 0.7   0.5 - 0   0 0.00 0.00 60.8   0.8 34.3   5.5 5.6   1.9 0.034   0.009 -
Acampo 1/17/22 2330 45.2   5.0 91   1 42.8   4.7 N | 0 0.0   0.0 0.0   0.0 - 0   0 - 0.00 61.2   1.0 35.9   3.8 6.4   1.7 0.039   0.006 18.2   5.2
Acampo (Woodbridge) 1/17/22 2330 46.6   2.9 93   2 44.8   2.2 E | 89 1.5   1.3 2.6   1.5 - 0   0 0.00 0.01 62.3   2.1 36.3   5.8 7.4   1.0 0.042   0.003 -
Lodi West 1/17/22 2330 46.5   2.4 93   0 44.5   2.2 N | 0 0.0   0.0 0.0   0.7 - 0   0 0.00 0.00 60.6   0.6 37.3   4.7 6.8   2.8 0.043   0.001 3.6   3.6
Teresi-Alpine Rd (East Lodi) 1/17/22 2330 45.4   1.0 95   0 44.0   1.1 E | 80 1.6   0.8 2.3   0.7 - 0   0 0.00 0.00 62.8   0.8 36.1   5.6 6.8   2.7 0.050   0.003 -
Victor - N (Katusha) 1/17/22 2330 45.2   2.3 93   3 43.2   1.5 E | 95 0.1   0.1 2.1   2.1 - - 0.00 0.00 64.0   4.1 35.6   5.2 - - -
Live Oak 1/17/22 2330 43.7   1.2 98   2 43.2   0.7 ENE | 66 1.8   1.3 2.6   1.2 - 0   0 0.00 0.00 60.7   0.2 35.9   5.0 6.6   1.9 0.041   0.003 -
Sheldon 1/17/22 2330 36.3   1.5 94   0 34.7   1.5 N | 0 0.0   0.0 0.0   0.0 - 0   0 0.00 0.00 57.5   1.7 31.7   5.7 7.4   0.3 0.035   0.003 11.7   0.4
Sloughhouse 1/17/22 2330 35.7   0.7 100   0 35.7   0.7 NE | 48 0.2   0.2 2.1   2.1 - 0   0 0.00 0.00 58.5   3.8 30.7   4.9 6.4   1.3 0.027   0.015 -
Utter - Wilson 1/17/22 2330 39.2   1.6 99   1 38.9   1.4 NE | 38 1.1   0.7 2.0   0.6 - 0   0 0.00 0.00 62.4   3.0 32.7   4.6 9.2   2.2 0.037   0.004 -
Clarksburg 1/17/22 2330 41.0   2.6 99   0 40.8   2.6 NNE | 19 2.2   2.2 3.9   3.9 - 0   0 0.00 0.00 61.3   2.1 33.2   4.7 6.5   3.0 0.039   0.004 -
Clarksburg-3A2 1/17/22 2330 39.6   1.5 100   0 39.6   1.5 NW | 324 0.4   0.3 1.2   0.3 - 0   0 0.00 0.00 58.5   1.0 33.4   4.2 7.5   2.9 0.036   0.006 -
Gorter - Wilson 1/17/22 2330 37.6   3.1 100   0 37.6   3.1 NE | 41 1.2   1.1 3.2   2.1 - 0   0 0.00 0.00 60.3   0.8 30.9   3.0 5.6   4.3 0.030   0.008 -
Hood 1/17/22 2330 40.6   2.5 100   0 40.7   2.5 NE | 53 0.7   0.4 1.5   0.0 - 0   0 0.00 0.01 60.7   1.2 33.0   4.8 5.5   2.7 0.032   0.009 -
Courtland-C3 1/17/22 2330 40.8   0.1 100   0 40.8   0.1 N | 0 0.0   0.0 0.0   0.0 - - 0.00 0.00 59.4   0.1 33.6   6.0 6.0   4.0 - -
Pacific Fruit 1/17/22 2330 41.9   0.0 99   1 41.7   0.2 N | 0 0.0   0.1 0.0   0.9 - 0   0 0.00 0.00 62.2   1.6 34.1   7.0 7.2   2.6 0.039   0.013 -
Ryer Island South 1/17/22 2300 39.3   4.7 99   0 39.2   4.7 N | 0 0.0   2.2 0.0   3.6 - 0   0 0.00 0.00 61.5   0.4 35.0   6.0 7.5   1.6 0.041   0.008 15.9   0.2
Farmington (Mobley100) 1/17/22 2330 44.0   2.5 94   1 42.3   2.2 E | 98 0.4   0.4 1.8   1.8 - - - - 61.5   0.5 37.7   3.6 5.3   0.7 - -
Collegeville 1/17/22 2330 44.2   2.5 96   2 43.1   2.0 E | 100 0.2   0.1 0.7   0.0 - 0   0 0.00 0.00 63.4   0.6 37.5   3.8 6.3   1.0 0.038   0.016 -
Oakdale North (28 Mile Rd) 1/17/22 2330 46.8   4.9 92   6 44.6   3.3 ESE | 117 0.9   0.1 2.2   0.2 - - - - 58.0   2.6 37.0   4.1 4.9   2.0 - -
Escalon 1/17/22 2330 46.2   2.1 95   4 44.8   0.9 N | 352 0.1   1.0 1.3   1.4 - - 0.00 0.00 67.5   0.7 38.2   5.1 6.1   1.5 - 9.5   2.7
Claussen 1/17/22 2330 48.2   2.3 95   4 46.8   1.3 SSE | 166 0.4   1.2 1.9   0.3 - 0   0 0.00 0.00 65.4   4.5 38.4   2.9 9.0   1.2 0.062   0.020 -
Max     48.2 100 46.8 - 4.3 4.9 - 3 0.00 0.01 67.5 38.4 9.2 0.062 23.4
Avg     42.4 97 41.5 - 0.9 1.8 - 0 0.00 - - - - - -
Min     35.7 90 34.7 - 0.0 0.0 - 0 0.00 0.00 56.0 30.7 4.4 0.025 3.6

Latest Observations

Map

Hourly Data